createdAt,value
2023-04-20T00:01:17.171Z,6.20
2023-04-20T00:03:51.754Z,6.20
2023-04-20T00:06:25.549Z,6.20
2023-04-20T00:08:59.777Z,6.10
2023-04-20T00:11:35.145Z,6.10
2023-04-20T00:14:09.822Z,6.10
2023-04-20T00:16:40.609Z,6.10
2023-04-20T00:19:11.762Z,6.10
2023-04-20T00:21:43.613Z,6.10
2023-04-20T00:24:16.943Z,6.10
2023-04-20T00:26:49.852Z,6.10
2023-04-20T00:29:24.540Z,6.10
2023-04-20T00:31:56.173Z,6.10
2023-04-20T00:34:27.645Z,6.30
2023-04-20T00:36:56.272Z,6.40
2023-04-20T00:39:25.031Z,6.50
2023-04-20T00:41:55.134Z,6.60
2023-04-20T00:44:26.504Z,6.70
2023-04-20T00:46:57.513Z,6.70
2023-04-20T00:49:34.552Z,6.80
2023-04-20T00:52:04.833Z,6.90
2023-04-20T00:54:33.908Z,6.90
2023-04-20T00:57:14.661Z,6.90
2023-04-20T00:59:48.254Z,7.00
2023-04-20T01:02:18.277Z,7.00
2023-04-20T01:04:48.537Z,7.00
2023-04-20T01:07:17.400Z,7.10
2023-04-20T01:09:46.706Z,7.10
2023-04-20T01:12:21.492Z,7.20
2023-04-20T01:14:53.142Z,7.20
2023-04-20T01:17:24.272Z,7.20
2023-04-20T01:19:53.005Z,7.20
2023-04-20T01:22:26.365Z,7.20
2023-04-20T01:24:57.897Z,7.20
2023-04-20T01:27:29.349Z,7.20
2023-04-20T01:29:58.282Z,7.10
2023-04-20T01:32:32.317Z,7.00
2023-04-20T01:35:04.112Z,7.00
2023-04-20T01:37:42.360Z,7.00
2023-04-20T01:40:22.519Z,6.90
2023-04-20T01:42:51.229Z,6.90
2023-04-20T01:45:25.816Z,6.90
2023-04-20T01:48:01.801Z,6.90
2023-04-20T01:50:36.630Z,6.90
2023-04-20T01:53:06.826Z,6.90
2023-04-20T01:55:41.292Z,6.90
2023-04-20T01:58:17.458Z,6.90
2023-04-20T02:00:49.304Z,6.80
2023-04-20T02:03:20.730Z,6.90
2023-04-20T02:06:03.124Z,6.90
2023-04-20T02:08:37.812Z,6.90
2023-04-20T02:11:09.697Z,6.90
2023-04-20T02:13:41.221Z,7.00
2023-04-20T02:16:10.065Z,7.10
2023-04-20T02:18:39.372Z,7.20
2023-04-20T02:21:08.403Z,7.20
2023-04-20T02:23:38.626Z,7.30
2023-04-20T02:26:07.458Z,7.30
2023-04-20T02:28:38.876Z,7.40
2023-04-20T02:31:09.852Z,7.40
2023-04-20T02:33:42.061Z,7.50
2023-04-20T02:36:15.815Z,7.50
2023-04-20T02:38:48.851Z,7.60
2023-04-20T02:41:17.679Z,7.60
2023-04-20T02:43:46.483Z,7.60
2023-04-20T02:46:18.897Z,7.70
2023-04-20T02:49:04.331Z,7.70
2023-04-20T02:51:35.686Z,7.70
2023-04-20T02:54:07.424Z,7.80
2023-04-20T02:56:36.269Z,7.80
2023-04-20T02:59:05.107Z,7.80
2023-04-20T03:01:36.298Z,7.80
2023-04-20T03:04:05.720Z,7.80
2023-04-20T03:06:38.679Z,7.80
2023-04-20T03:09:18.545Z,7.80
2023-04-20T03:11:51.362Z,7.80
2023-04-20T03:14:20.415Z,7.80
2023-04-20T03:16:54.538Z,7.80
2023-04-20T03:19:32.035Z,7.80
2023-04-20T03:22:08.392Z,7.80
2023-04-20T03:24:39.549Z,7.80
2023-04-20T03:27:08.776Z,7.80
2023-04-20T03:29:40.474Z,7.90
2023-04-20T03:32:09.333Z,7.90
2023-04-20T03:34:40.832Z,7.80
2023-04-20T03:37:14.015Z,7.90
2023-04-20T03:39:57.905Z,7.90
2023-04-20T03:42:31.296Z,7.90
2023-04-20T03:45:00.209Z,7.90
2023-04-20T03:47:35.044Z,7.90
2023-04-20T03:50:06.960Z,7.90
2023-04-20T03:52:35.654Z,7.90
2023-04-20T03:55:06.554Z,7.90
2023-04-20T03:57:35.581Z,7.90
2023-04-20T04:00:05.004Z,7.90
2023-04-20T04:02:36.135Z,7.90
2023-04-20T04:05:07.678Z,7.90
2023-04-20T04:07:36.514Z,7.90
2023-04-20T04:10:07.670Z,7.90
2023-04-20T04:12:36.418Z,7.90
2023-04-20T04:15:05.970Z,7.80
2023-04-20T04:17:35.009Z,7.80
2023-04-20T04:20:03.820Z,7.80
2023-04-20T04:22:39.284Z,7.80
2023-04-20T04:25:13.107Z,7.80
2023-04-20T04:27:41.871Z,7.70
2023-04-20T04:30:12.140Z,7.80
2023-04-20T04:32:43.729Z,7.70
2023-04-20T04:35:12.582Z,7.80
2023-04-20T04:37:44.067Z,7.80
2023-04-20T04:40:15.217Z,7.80
2023-04-20T04:42:59.607Z,7.80
2023-04-20T04:45:39.213Z,7.80
2023-04-20T04:48:12.565Z,7.80
2023-04-20T04:50:43.033Z,7.70
2023-04-20T04:53:16.521Z,7.70
2023-04-20T04:55:47.238Z,7.70
2023-04-20T04:58:19.635Z,7.70
2023-04-20T05:00:52.083Z,7.70
2023-04-20T05:03:22.946Z,7.70
2023-04-20T05:05:55.229Z,7.80
2023-04-20T05:08:28.695Z,7.70
2023-04-20T05:11:00.165Z,7.70
2023-04-20T05:13:29.291Z,7.80
2023-04-20T05:16:03.106Z,7.80
2023-04-20T05:18:32.156Z,7.80
2023-04-20T05:21:01.211Z,7.80
2023-04-20T05:23:30.181Z,7.80
2023-04-20T05:26:00.349Z,7.80
2023-04-20T05:28:30.555Z,7.80
2023-04-20T05:31:01.913Z,7.90
2023-04-20T05:33:33.092Z,7.90
2023-04-20T05:36:03.607Z,8.00
2023-04-20T05:38:32.774Z,8.00
2023-04-20T05:41:03.038Z,8.00
2023-04-20T05:43:33.006Z,8.00
2023-04-20T05:46:01.848Z,8.10
2023-04-20T05:48:31.456Z,8.10
2023-04-20T05:51:00.179Z,8.20
2023-04-20T05:53:28.882Z,8.20
2023-04-20T05:56:00.303Z,8.30
2023-04-20T05:58:30.683Z,8.30
2023-04-20T06:00:59.609Z,8.40
2023-04-20T06:03:30.254Z,8.50
2023-04-20T06:05:59.309Z,8.50
2023-04-20T06:08:30.369Z,8.60
2023-04-20T06:10:59.277Z,8.60
2023-04-20T06:13:30.812Z,8.60
2023-04-20T06:15:59.864Z,8.60
2023-04-20T06:18:29.521Z,8.60
2023-04-20T06:21:03.271Z,8.60
2023-04-20T06:23:32.158Z,8.60
2023-04-20T06:26:00.952Z,8.60
2023-04-20T06:28:36.033Z,8.60
2023-04-20T06:31:07.892Z,8.50
2023-04-20T06:33:36.940Z,8.50
2023-04-20T06:36:13.298Z,8.50
2023-04-20T06:38:53.082Z,8.40
2023-04-20T06:41:21.766Z,8.30
2023-04-20T06:43:51.977Z,8.20
2023-04-20T06:46:24.689Z,8.30
2023-04-20T06:48:53.524Z,8.20
2023-04-20T06:51:22.346Z,8.20
2023-04-20T06:53:51.075Z,8.10
2023-04-20T06:56:22.395Z,8.10
2023-04-20T06:58:52.584Z,8.10
2023-04-20T07:01:21.938Z,8.20
2023-04-20T07:03:50.815Z,8.20
2023-04-20T07:06:19.642Z,8.10
2023-04-20T07:08:48.438Z,8.10
2023-04-20T07:11:19.197Z,8.10
2023-04-20T07:13:48.018Z,8.10
2023-04-20T07:16:21.479Z,8.10
2023-04-20T07:18:50.276Z,8.00
2023-04-20T07:21:18.993Z,7.90
2023-04-20T07:23:48.378Z,7.90
2023-04-20T07:26:19.961Z,8.00
2023-04-20T07:28:48.654Z,8.10
2023-04-20T07:31:19.060Z,8.20
2023-04-20T07:33:50.950Z,8.40
2023-04-20T07:36:22.826Z,8.30
2023-04-20T07:38:51.642Z,8.40
2023-04-20T07:41:23.198Z,8.50
2023-04-20T07:43:52.188Z,8.60
2023-04-20T07:46:25.589Z,8.70
2023-04-20T07:48:54.337Z,8.60
2023-04-20T07:51:23.160Z,8.60
2023-04-20T07:53:52.047Z,8.60
2023-04-20T07:56:21.144Z,8.50
2023-04-20T07:58:49.952Z,8.40
2023-04-20T08:01:20.054Z,8.30
2023-04-20T08:03:56.084Z,8.40
2023-04-20T08:06:24.959Z,8.30
2023-04-20T08:08:53.707Z,8.20
2023-04-20T08:11:24.537Z,8.20
2023-04-20T08:13:53.367Z,8.20
2023-04-20T08:16:22.212Z,8.10
2023-04-20T08:18:52.704Z,8.20
2023-04-20T08:21:25.456Z,8.30
2023-04-20T08:23:55.048Z,8.30
2023-04-20T08:26:27.515Z,8.30
2023-04-20T08:28:56.594Z,8.40
2023-04-20T08:31:25.349Z,8.50
2023-04-20T08:33:56.176Z,8.60
2023-04-20T08:36:28.123Z,8.70
2023-04-20T08:38:59.745Z,8.80
2023-04-20T08:41:28.481Z,8.90
2023-04-20T08:43:57.130Z,9.00
2023-04-20T08:46:26.439Z,9.20
2023-04-20T08:49:01.631Z,9.20
2023-04-20T08:51:31.196Z,9.10
2023-04-20T08:54:06.330Z,9.20
2023-04-20T08:56:38.601Z,9.30
2023-04-20T08:59:10.406Z,9.40
2023-04-20T09:01:41.626Z,9.80
2023-04-20T09:04:19.953Z,10.20
2023-04-20T09:06:50.350Z,10.20
2023-04-20T09:09:19.704Z,10.30
2023-04-20T09:11:49.193Z,10.30
2023-04-20T09:14:18.971Z,9.90
2023-04-20T09:16:52.230Z,9.80
2023-04-20T09:19:25.696Z,9.60
2023-04-20T09:21:56.442Z,9.50
2023-04-20T09:24:32.768Z,9.20
2023-04-20T09:27:02.426Z,9.20
2023-04-20T09:29:32.375Z,9.40
2023-04-20T09:32:01.035Z,9.50
2023-04-20T09:34:31.791Z,9.50
2023-04-20T09:37:00.454Z,9.50
2023-04-20T09:39:30.522Z,9.40
2023-04-20T09:42:05.461Z,9.50
2023-04-20T09:44:39.948Z,9.70
2023-04-20T09:47:09.108Z,9.90
2023-04-20T09:49:40.348Z,10.20
2023-04-20T09:52:09.425Z,10.70
2023-04-20T09:54:39.307Z,10.90
2023-04-20T09:57:07.968Z,10.90
2023-04-20T09:59:37.350Z,10.70
2023-04-20T10:02:10.235Z,10.70
2023-04-20T10:04:52.117Z,10.80
2023-04-20T10:07:26.496Z,10.80
2023-04-20T10:10:09.330Z,10.60
2023-04-20T10:12:49.285Z,10.30
2023-04-20T10:15:18.757Z,10.10
2023-04-20T10:17:47.583Z,10.00
2023-04-20T10:20:26.011Z,10.10
2023-04-20T10:22:56.322Z,10.30
2023-04-20T10:25:28.028Z,10.40
2023-04-20T10:27:59.078Z,10.50
2023-04-20T10:30:29.235Z,10.80
2023-04-20T10:33:08.745Z,11.20
2023-04-20T10:35:48.937Z,11.40
2023-04-20T10:38:20.452Z,11.80
2023-04-20T10:40:49.429Z,12.40
2023-04-20T10:43:22.373Z,13.00
2023-04-20T10:45:51.566Z,12.90
2023-04-20T10:48:20.363Z,12.80
2023-04-20T10:50:53.532Z,12.50
2023-04-20T10:53:23.349Z,12.00
2023-04-20T10:56:00.096Z,11.80
2023-04-20T10:58:29.606Z,11.70
2023-04-20T11:01:03.250Z,11.80
2023-04-20T11:03:34.349Z,11.70
2023-04-20T11:06:04.818Z,11.80
2023-04-20T11:08:44.295Z,11.70
2023-04-20T11:11:24.919Z,12.00
2023-04-20T11:13:55.880Z,12.40
2023-04-20T11:16:30.470Z,12.20
2023-04-20T11:19:05.899Z,11.80
2023-04-20T11:21:39.959Z,11.60
2023-04-20T11:24:20.258Z,11.60
2023-04-20T11:26:51.428Z,11.80
2023-04-20T11:29:34.138Z,11.80
2023-04-20T11:32:05.623Z,11.30
2023-04-20T11:34:39.652Z,11.10
2023-04-20T11:37:13.154Z,11.00
2023-04-20T11:39:42.383Z,11.10
2023-04-20T11:42:12.386Z,11.30
2023-04-20T11:44:43.034Z,11.20
2023-04-20T11:47:15.154Z,11.10
2023-04-20T11:49:43.819Z,11.20
2023-04-20T11:52:13.867Z,11.10
2023-04-20T11:54:43.838Z,11.20
2023-04-20T11:57:16.028Z,11.20
2023-04-20T11:59:49.907Z,11.20
2023-04-20T12:02:20.466Z,11.30
2023-04-20T12:04:49.555Z,11.50
2023-04-20T12:07:23.019Z,11.60
2023-04-20T12:09:51.859Z,11.70
2023-04-20T12:12:22.185Z,11.70
2023-04-20T12:14:53.273Z,11.50
2023-04-20T12:17:22.012Z,11.30
2023-04-20T12:19:50.609Z,11.20
2023-04-20T12:22:22.026Z,11.10
2023-04-20T12:24:50.816Z,11.10
2023-04-20T12:27:20.229Z,11.00
2023-04-20T12:29:48.879Z,11.20
2023-04-20T12:32:19.034Z,11.50
2023-04-20T12:34:47.677Z,11.80
2023-04-20T12:37:16.301Z,12.20
2023-04-20T12:39:46.412Z,12.60
2023-04-20T12:42:15.145Z,12.70
2023-04-20T12:44:43.898Z,12.30
2023-04-20T12:47:13.734Z,12.00
2023-04-20T12:49:42.395Z,12.00
2023-04-20T12:52:11.126Z,12.10
2023-04-20T12:54:41.069Z,12.40
2023-04-20T12:57:12.252Z,12.30
2023-04-20T12:59:48.598Z,12.20
2023-04-20T13:02:17.410Z,12.00
2023-04-20T13:04:46.943Z,11.90
2023-04-20T13:07:15.664Z,11.90
2023-04-20T13:09:44.358Z,11.90
2023-04-20T13:12:14.982Z,11.70
2023-04-20T13:14:43.739Z,11.60
2023-04-20T13:17:12.497Z,11.50
2023-04-20T13:19:41.365Z,11.90
2023-04-20T13:22:11.858Z,12.30
2023-04-20T13:24:41.879Z,12.40
2023-04-20T13:27:11.314Z,12.30
2023-04-20T13:29:41.513Z,12.30
2023-04-20T13:32:11.177Z,12.20
2023-04-20T13:34:42.405Z,12.30
2023-04-20T13:37:11.059Z,12.30
2023-04-20T13:39:39.755Z,12.20
2023-04-20T13:42:08.387Z,12.20
2023-04-20T13:44:37.392Z,12.10
2023-04-20T13:47:07.617Z,12.00
2023-04-20T13:49:36.232Z,12.50
2023-04-20T13:52:04.922Z,12.90
2023-04-20T13:54:33.769Z,13.10
2023-04-20T13:57:02.658Z,13.40
2023-04-20T13:59:31.484Z,13.50
2023-04-20T14:02:00.697Z,13.10
2023-04-20T14:04:30.764Z,12.90
2023-04-20T14:06:59.487Z,12.60
2023-04-20T14:09:28.637Z,12.30
2023-04-20T14:11:57.384Z,12.40
2023-04-20T14:14:26.055Z,12.50
2023-04-20T14:16:54.821Z,12.50
2023-04-20T14:19:23.463Z,12.60
2023-04-20T14:21:55.493Z,12.90
2023-04-20T14:24:24.165Z,13.30
2023-04-20T14:26:53.156Z,13.80
2023-04-20T14:29:21.945Z,13.80
2023-04-20T14:31:50.680Z,13.90
2023-04-20T14:34:19.606Z,14.10
2023-04-20T14:36:48.518Z,14.30
2023-04-20T14:39:20.534Z,14.50
2023-04-20T14:41:49.163Z,14.90
2023-04-20T14:44:17.903Z,15.10
2023-04-20T14:46:46.716Z,14.80
2023-04-20T14:49:15.352Z,14.80
2023-04-20T14:51:44.090Z,15.00
2023-04-20T14:54:12.772Z,15.00
2023-04-20T14:56:42.893Z,14.40
2023-04-20T14:59:11.568Z,14.30
2023-04-20T15:01:48.410Z,14.10
2023-04-20T15:04:27.746Z,14.20
2023-04-20T15:06:56.440Z,14.60
2023-04-20T15:09:25.090Z,14.70
2023-04-20T15:11:55.219Z,14.60
2023-04-20T15:14:23.880Z,14.30
2023-04-20T15:16:53.572Z,13.90
2023-04-20T15:19:22.700Z,13.70
2023-04-20T15:21:51.580Z,13.10
2023-04-20T15:24:20.611Z,13.10
2023-04-20T15:26:49.449Z,13.40
2023-04-20T15:29:19.406Z,13.70
2023-04-20T15:31:48.281Z,13.70
2023-04-20T15:34:17.296Z,13.80
2023-04-20T15:36:46.603Z,13.90
2023-04-20T15:39:15.152Z,13.70
2023-04-20T15:41:43.748Z,13.80
2023-04-20T15:44:12.396Z,14.00
2023-04-20T15:46:42.322Z,13.90
2023-04-20T15:49:10.952Z,13.90
2023-04-20T15:51:39.763Z,13.90
2023-04-20T15:54:08.488Z,13.70
2023-04-20T15:56:37.152Z,13.70
2023-04-20T15:59:05.923Z,13.60
2023-04-20T16:01:35.275Z,13.60
2023-04-20T16:04:05.615Z,13.40
2023-04-20T16:06:36.922Z,13.50
2023-04-20T16:09:07.012Z,13.80
2023-04-20T16:11:36.172Z,14.10
2023-04-20T16:14:04.856Z,14.00
2023-04-20T16:16:34.008Z,14.00
2023-04-20T16:19:04.199Z,13.90
2023-04-20T16:21:35.306Z,13.80
2023-04-20T16:24:04.023Z,13.60
2023-04-20T16:26:32.811Z,13.70
2023-04-20T16:29:01.603Z,13.70
2023-04-20T16:31:30.593Z,13.90
2023-04-20T16:34:00.222Z,14.20
2023-04-20T16:36:30.753Z,14.40
2023-04-20T16:39:01.867Z,14.40
2023-04-20T16:41:30.981Z,14.20
2023-04-20T16:43:59.761Z,13.80
2023-04-20T16:46:28.565Z,13.60
2023-04-20T16:48:57.257Z,13.40
2023-04-20T16:51:26.064Z,13.40
2023-04-20T16:53:56.669Z,13.20
2023-04-20T16:56:25.397Z,13.20
2023-04-20T16:58:54.134Z,13.20
2023-04-20T17:01:22.987Z,13.30
2023-04-20T17:03:51.864Z,13.20
2023-04-20T17:06:20.618Z,13.20
2023-04-20T17:08:50.353Z,13.00
2023-04-20T17:11:20.452Z,13.10
2023-04-20T17:13:49.251Z,13.10
2023-04-20T17:16:18.113Z,13.10
2023-04-20T17:18:56.365Z,13.20
2023-04-20T17:21:29.209Z,13.50
2023-04-20T17:24:00.386Z,13.60
2023-04-20T17:26:34.668Z,13.70
2023-04-20T17:29:06.610Z,13.70
2023-04-20T17:31:38.327Z,13.50
2023-04-20T17:34:07.792Z,13.30
2023-04-20T17:36:36.592Z,13.10
2023-04-20T17:39:05.644Z,12.80
2023-04-20T17:41:35.869Z,12.60
2023-04-20T17:44:11.559Z,12.50
2023-04-20T17:46:41.230Z,12.40
2023-04-20T17:49:12.492Z,12.40
2023-04-20T17:52:02.136Z,12.40
2023-04-20T17:54:36.339Z,12.40
2023-04-20T17:57:07.088Z,12.30
2023-04-20T17:59:36.007Z,12.20
2023-04-20T18:02:05.262Z,12.10
2023-04-20T18:04:34.368Z,12.10
2023-04-20T18:07:08.027Z,12.00
2023-04-20T18:09:36.781Z,12.00
2023-04-20T18:12:08.695Z,11.90
2023-04-20T18:14:37.588Z,11.90
2023-04-20T18:17:06.308Z,11.80
2023-04-20T18:19:35.040Z,11.80
2023-04-20T18:22:04.205Z,11.70
2023-04-20T18:24:32.987Z,11.50
2023-04-20T18:27:02.143Z,11.20
2023-04-20T18:29:32.332Z,11.10
2023-04-20T18:32:01.394Z,11.00
2023-04-20T18:34:32.136Z,10.90
2023-04-20T18:37:00.981Z,10.80
2023-04-20T18:39:30.011Z,10.70
2023-04-20T18:41:58.671Z,10.70
2023-04-20T18:44:28.343Z,10.60
2023-04-20T18:46:58.787Z,10.50
2023-04-20T18:49:27.603Z,10.60
2023-04-20T18:51:56.278Z,10.60
2023-04-20T18:54:24.919Z,10.60
2023-04-20T18:56:54.814Z,10.50
2023-04-20T18:59:24.769Z,10.50
2023-04-20T19:01:53.590Z,10.30
2023-04-20T19:04:23.987Z,10.20
2023-04-20T19:06:52.739Z,10.10
2023-04-20T19:09:21.470Z,10.00
2023-04-20T19:11:51.463Z,9.80
2023-04-20T19:14:20.548Z,9.60
2023-04-20T19:16:56.134Z,9.30
2023-04-20T19:19:26.385Z,9.30
2023-04-20T19:21:55.200Z,9.20
2023-04-20T19:24:23.942Z,9.10
2023-04-20T19:26:52.585Z,9.00
2023-04-20T19:29:21.297Z,9.00
2023-04-20T19:31:50.032Z,9.00
2023-04-20T19:34:18.907Z,9.10
2023-04-20T19:36:49.127Z,9.00
2023-04-20T19:39:17.842Z,9.10
2023-04-20T19:41:46.730Z,9.00
2023-04-20T19:44:15.958Z,9.00
2023-04-20T19:46:44.732Z,9.00
2023-04-20T19:49:16.406Z,9.00
2023-04-20T19:51:45.256Z,9.00
2023-04-20T19:54:16.720Z,9.00
2023-04-20T19:56:46.453Z,9.00
2023-04-20T19:59:18.314Z,9.00
2023-04-20T20:01:50.207Z,9.00
2023-04-20T20:04:20.593Z,9.00
2023-04-20T20:06:50.880Z,8.90
2023-04-20T20:09:25.255Z,8.90
2023-04-20T20:11:53.962Z,9.00
2023-04-20T20:14:22.976Z,8.90
2023-04-20T20:16:51.662Z,8.90
2023-04-20T20:19:22.418Z,8.90
2023-04-20T20:21:51.522Z,8.90
2023-04-20T20:24:25.283Z,8.90
2023-04-20T20:26:55.448Z,8.90
2023-04-20T20:29:24.509Z,8.90
2023-04-20T20:31:55.287Z,8.90
2023-04-20T20:34:24.047Z,8.90
2023-04-20T20:36:53.417Z,8.90
2023-04-20T20:39:25.815Z,8.80
2023-04-20T20:41:57.069Z,8.80
2023-04-20T20:44:27.904Z,8.70
2023-04-20T20:46:56.767Z,8.70
2023-04-20T20:49:25.550Z,8.60
2023-04-20T20:51:54.191Z,8.60
2023-04-20T20:54:24.330Z,8.60
2023-04-20T20:56:53.109Z,8.60
2023-04-20T20:59:21.783Z,8.70
2023-04-20T21:01:50.473Z,8.70
2023-04-20T21:04:19.154Z,8.70
2023-04-20T21:06:49.488Z,8.80
2023-04-20T21:09:18.444Z,8.80
2023-04-20T21:11:48.859Z,8.80
2023-04-20T21:14:17.547Z,8.70
2023-04-20T21:16:46.249Z,8.70
2023-04-20T21:19:14.938Z,8.70
2023-04-20T21:21:43.698Z,8.60
2023-04-20T21:24:14.350Z,8.60
2023-04-20T21:26:43.195Z,8.60
2023-04-20T21:29:13.295Z,8.60
2023-04-20T21:31:42.048Z,8.60
2023-04-20T21:34:10.781Z,8.50
2023-04-20T21:36:39.473Z,8.40
2023-04-20T21:39:10.934Z,8.40
2023-04-20T21:41:39.600Z,8.50
2023-04-20T21:44:12.533Z,8.40
2023-04-20T21:46:41.293Z,8.50
2023-04-20T21:49:10.078Z,8.50
2023-04-20T21:51:38.854Z,8.60
2023-04-20T21:54:07.576Z,8.60
2023-04-20T21:56:36.204Z,8.60
2023-04-20T21:59:04.889Z,8.60
2023-04-20T22:01:35.008Z,8.60
2023-04-20T22:04:04.609Z,8.60
2023-04-20T22:06:33.777Z,8.70
2023-04-20T22:09:04.787Z,8.70
2023-04-20T22:11:36.479Z,8.70
2023-04-20T22:14:05.619Z,8.70
2023-04-20T22:16:38.610Z,8.70
2023-04-20T22:19:07.264Z,8.70
2023-04-20T22:21:35.946Z,8.70
2023-04-20T22:24:05.308Z,8.70
2023-04-20T22:26:33.997Z,8.70
2023-04-20T22:29:02.985Z,8.70
2023-04-20T22:31:35.365Z,8.70
2023-04-20T22:34:05.501Z,8.70
2023-04-20T22:36:35.157Z,8.70
2023-04-20T22:39:04.664Z,8.70
2023-04-20T22:41:33.415Z,8.70
2023-04-20T22:44:02.043Z,8.60
2023-04-20T22:46:30.729Z,8.60
2023-04-20T22:49:00.120Z,8.50
2023-04-20T22:51:30.896Z,8.60
2023-04-20T22:54:01.016Z,8.50
2023-04-20T22:56:30.334Z,8.50
2023-04-20T22:58:58.984Z,8.40
2023-04-20T23:01:27.808Z,8.40
2023-04-20T23:04:00.298Z,8.50
2023-04-20T23:06:31.849Z,8.50
2023-04-20T23:09:00.485Z,8.50
2023-04-20T23:11:30.845Z,8.60
2023-04-20T23:13:59.563Z,8.60
2023-04-20T23:16:30.028Z,8.70
2023-04-20T23:18:58.741Z,8.70
2023-04-20T23:21:27.787Z,8.70
2023-04-20T23:23:57.924Z,8.70
2023-04-20T23:26:26.746Z,8.70
2023-04-20T23:28:55.456Z,8.60
2023-04-20T23:31:26.253Z,8.60
2023-04-20T23:33:54.993Z,8.50
2023-04-20T23:36:23.599Z,8.50
2023-04-20T23:38:52.328Z,8.40
2023-04-20T23:41:22.416Z,8.30
2023-04-20T23:43:52.491Z,8.30
2023-04-20T23:46:23.955Z,8.20
2023-04-20T23:48:52.736Z,8.10
2023-04-20T23:51:21.482Z,8.10
2023-04-20T23:53:53.163Z,8.10
2023-04-20T23:56:23.396Z,8.10
2023-04-20T23:58:52.121Z,8.00
